Impacts TAF Board INFO
FOR SITUATIONAL AWARENESS. NOT TO BE USED FOR FLIGHT PLANNING PURPOSES.
IDs:

KCVG - Cincinnati Intl, KY, US

Issued at 2350 UTC 16 Jul 2018
Updated at 0400 UTC 17 Jul 2018
Potential Impact None Slight Moderate High
Time<<18/04Z 18/05Z 18/06Z 18/07Z 18/08Z 18/09Z 18/10Z 18/11Z 18/12Z 18/13Z 18/14Z 18/15Z 18/16Z
Type PRVL PRVL
VIS >6 >6
CIG -- --
Cover FEW FEW
FltCat VFR VFR
WX -- --
WDir 340 340
WSpd 7 7
WGst -- --

Raw TAF
KCVG 162350Z 1700/1806 26006KT P6SM VCSH SCT050 BKN120
  FM170600 31005KT P6SM SCT120
  FM171100 35006KT P6SM FEW120
  FM171600 34010G16KT P6SM FEW050
  FM180000 34007KT P6SM FEW060


METAR Board
Radar Display
Forecast Discussion

FOR SITUATIONAL AWARENESS. NOT TO BE USED FOR FLIGHT PLANNING PURPOSES.